Time;durP1;ratioP1;P1;durP2;ratioP2;P2;SDS_P1;SDS_P2;PMS_P1;PMS_P2;Temp;Humidity;BMP_temperature;BMP_pressure;BME280_temperature;BME280_humidity;BME280_pressure;Samples;Min_cycle;Max_cycle;Signal;HPM_P1;HPM_P2
2022/11/18 00:00:56;;;;;;;;;6.75;6.75;;;;;10.09;78.07;98953.91;5074234;27;45378;-70
2022/11/18 00:03:22;;;;;;;;;9.25;7.00;;;;;10.07;78.24;98950.50;5074728;27;45374;-71
2022/11/18 00:05:55;;;;;;;;;9.00;9.00;;;;;10.04;78.08;98954.19;5072857;28;45297;-68
2022/11/18 00:08:21;;;;;;;;;6.75;6.75;;;;;10.07;77.74;98961.88;5074276;27;47134;-70
2022/11/18 00:10:47;;;;;;;;;3.50;3.50;;;;;10.01;78.01;98953.53;5074135;27;45438;-70
2022/11/18 00:16:01;;;;;;;;;6.75;6.75;;;;;10.04;78.23;98976.97;5067575;28;45311;-69
2022/11/18 00:18:27;;;;;;;;;4.50;4.50;;;;;10.03;77.91;98980.56;5054945;28;46456;-70
2022/11/18 00:20:52;;;;;;;;;3.75;3.75;;;;;10.03;78.11;98991.06;5057497;28;45261;-69
2022/11/18 00:23:17;;;;;;;;;2.50;2.50;;;;;9.96;77.91;98979.25;5056105;28;45438;-72
2022/11/18 00:25:43;;;;;;;;;3.00;3.00;;;;;9.97;78.27;98984.44;5057506;28;45448;-66
2022/11/18 00:28:08;;;;;;;;;8.75;8.50;;;;;9.94;77.92;98987.25;5057353;28;45338;-71
2022/11/18 00:30:34;;;;;;;;;4.00;4.00;;;;;9.94;78.32;98998.59;5056129;28;45367;-69
2022/11/18 00:32:59;;;;;;;;;5.00;5.00;;;;;9.93;78.17;99006.56;5057825;28;45402;-69
2022/11/18 00:35:24;;;;;;;;;3.50;3.50;;;;;9.88;78.42;99009.47;5057492;28;45792;-69
2022/11/18 00:37:49;;;;;;;;;19.25;19.25;;;;;9.89;78.50;99019.03;5057233;28;52190;-69
2022/11/18 00:40:15;;;;;;;;;4.50;4.50;;;;;9.87;78.50;99014.84;5056935;28;48384;-68
2022/11/18 00:42:52;;;;;;;;;5.50;5.50;;;;;9.83;78.68;99018.59;5057228;28;45293;-69
2022/11/18 00:45:22;;;;;;;;;4.00;4.00;;;;;9.83;78.41;99021.22;5057916;28;45404;-71
2022/11/18 00:47:47;;;;;;;;;4.25;4.00;;;;;9.79;78.58;99021.41;5055412;28;47654;-68
2022/11/18 00:50:13;;;;;;;;;3.00;3.00;;;;;9.86;78.30;99042.03;5057204;28;45418;-70
2022/11/18 00:52:38;;;;;;;;;8.25;8.00;;;;;9.85;78.68;99035.09;5057579;28;45963;-69
2022/11/18 00:55:04;;;;;;;;;6.25;6.25;;;;;9.81;78.76;99026.56;5057649;28;45609;-68
2022/11/18 00:57:30;;;;;;;;;2.00;2.00;;;;;9.84;78.64;99044.75;5057439;28;46431;-68
2022/11/18 00:59:55;;;;;;;;;3.00;3.00;;;;;9.83;78.97;99037.81;5055533;28;45358;-69
2022/11/18 01:02:20;;;;;;;;;2.00;2.00;;;;;9.83;79.00;99050.94;5056998;28;45802;-71
2022/11/18 01:04:46;;;;;;;;;2.00;2.00;;;;;9.75;78.86;99032.19;5057191;28;45373;-70
2022/11/18 01:07:11;;;;;;;;;7.75;7.75;;;;;9.80;78.79;99053.75;5056826;28;45476;-68
2022/11/18 01:09:36;;;;;;;;;6.00;6.00;;;;;9.82;78.94;99051.06;5056614;28;45387;-70
2022/11/18 01:14:47;;;;;;;;;6.25;6.25;;;;;9.77;79.13;99057.44;5056852;28;45358;-69
2022/11/18 01:17:12;;;;;;;;;1.00;1.00;;;;;9.77;78.83;99051.31;5056262;28;45525;-68
2022/11/18 01:19:38;;;;;;;;;1.00;1.00;;;;;9.75;78.76;99061.94;5056445;28;45401;-68
2022/11/18 01:22:03;;;;;;;;;1.00;1.00;;;;;9.66;79.18;99054.63;5056732;28;45364;-68
2022/11/18 01:24:30;;;;;;;;;2.75;2.75;;;;;9.70;79.34;99064.00;5056666;28;45207;-69
2022/11/18 01:26:56;;;;;;;;;1.00;1.00;;;;;9.69;79.24;99069.31;5056792;28;46232;-70
2022/11/18 01:29:21;;;;;;;;;1.00;1.00;;;;;9.67;79.20;99061.56;5056130;28;45290;-68
2022/11/18 01:31:46;;;;;;;;;1.00;1.00;;;;;9.63;79.03;99060.06;5056607;28;45265;-69
2022/11/18 01:34:12;;;;;;;;;1.25;1.25;;;;;9.67;79.36;99068.56;5056788;28;45515;-70
2022/11/18 01:36:37;;;;;;;;;1.00;1.00;;;;;9.63;79.52;99063.50;5056170;28;45260;-70
2022/11/18 01:39:03;;;;;;;;;2.00;2.00;;;;;9.63;79.70;99066.13;5056438;28;45383;-68
2022/11/18 01:41:29;;;;;;;;;2.00;2.00;;;;;9.63;79.69;99066.13;5056470;28;45509;-69
2022/11/18 01:43:57;;;;;;;;;1.50;1.50;;;;;9.64;79.25;99072.25;5056651;28;45346;-68
2022/11/18 01:46:24;;;;;;;;;2.00;2.00;;;;;9.60;79.12;99079.44;5056298;28;45411;-71
2022/11/18 01:48:58;;;;;;;;;1.00;1.00;;;;;9.62;79.75;99079.38;5056049;28;45255;-70
2022/11/18 01:51:29;;;;;;;;;2.00;2.00;;;;;9.61;79.67;99086.38;5056159;28;45369;-69
2022/11/18 01:54:05;;;;;;;;;1.00;1.00;;;;;9.58;79.58;99086.56;5056228;28;45368;-69
2022/11/18 01:56:48;;;;;;;;;2.00;0.75;;;;;9.60;79.49;99097.00;5056257;28;46791;-69
2022/11/18 01:59:18;;;;;;;;;2.00;2.00;;;;;9.55;79.67;99093.81;5056089;28;45402;-69
2022/11/18 02:01:44;;;;;;;;;1.75;1.75;;;;;9.54;79.57;99090.31;5055812;28;45211;-68
2022/11/18 02:04:11;;;;;;;;;1.00;1.00;;;;;9.55;79.58;99097.25;5055936;28;45368;-69
2022/11/18 02:06:37;;;;;;;;;1.75;1.75;;;;;9.55;79.71;99102.50;5056010;28;45305;-69
2022/11/18 02:09:03;;;;;;;;;1.00;1.00;;;;;9.53;79.62;99093.03;5055966;28;45308;-67
2022/11/18 02:14:13;;;;;;;;;1.00;1.00;;;;;9.52;79.72;99097.44;5056259;28;45354;-72
2022/11/18 02:17:11;;;;;;;;;0.50;0.50;;;;;9.52;80.13;99094.81;5055902;28;45310;-67
2022/11/18 02:19:45;;;;;;;;;1.00;1.00;;;;;9.51;80.08;99106.25;5056133;28;45380;-69
2022/11/18 02:22:35;;;;;;;;;1.00;1.00;;;;;9.51;79.99;99111.50;5055833;28;45471;-69
2022/11/18 02:25:37;;;;;;;;;1.00;1.00;;;;;9.48;79.89;99112.50;5056155;28;45380;-70
2022/11/18 02:28:24;;;;;;;;;5.25;5.25;;;;;9.46;80.39;99124.06;5055630;28;45249;-69
2022/11/18 02:31:18;;;;;;;;;1.75;1.75;;;;;9.43;80.24;99113.75;5070929;28;45229;-67
2022/11/18 02:33:54;;;;;;;;;2.00;2.00;;;;;9.44;80.60;99125.94;5055695;28;45330;-69
2022/11/18 02:36:27;;;;;;;;;1.00;1.00;;;;;9.43;80.37;99129.50;5054336;28;45383;-69
2022/11/18 02:38:58;;;;;;;;;1.00;1.00;;;;;9.37;80.53;99133.31;5055161;28;45382;-69
2022/11/18 02:41:29;;;;;;;;;1.25;1.25;;;;;9.41;80.74;99141.84;5054166;28;45284;-69
2022/11/18 02:44:01;;;;;;;;;1.00;1.00;;;;;9.39;80.74;99139.31;5055131;28;45355;-68
2022/11/18 02:46:32;;;;;;;;;2.00;2.00;;;;;9.38;80.67;99142.88;5055315;28;45401;-69
2022/11/18 02:48:59;;;;;;;;;1.25;1.25;;;;;9.37;80.58;99137.72;5055035;28;46349;-69
2022/11/18 02:51:28;;;;;;;;;1.00;1.00;;;;;9.38;80.68;99136.78;5054993;28;45338;-68
2022/11/18 02:54:02;;;;;;;;;1.00;1.00;;;;;9.34;81.15;99138.72;5055074;28;45291;-69
2022/11/18 02:56:28;;;;;;;;;0.25;0.25;;;;;9.34;80.92;99136.97;5055383;28;45293;-69
2022/11/18 02:58:54;;;;;;;;;1.00;1.00;;;;;9.26;80.84;99133.09;5054726;28;45395;-70
2022/11/18 03:01:26;;;;;;;;;1.00;1.00;;;;;9.30;81.00;99137.22;5053213;28;45464;-71
2022/11/18 03:03:51;;;;;;;;;1.00;1.00;;;;;9.32;81.06;99140.59;5053581;28;45346;-69
2022/11/18 03:06:34;;;;;;;;;1.00;1.00;;;;;9.31;80.81;99155.50;5055074;28;45442;-70
2022/11/18 03:09:33;;;;;;;;;1.00;1.00;;;;;9.29;80.80;99160.00;5055010;28;46661;-69
2022/11/18 03:12:09;;;;;;;;;0.00;0.00;;;;;9.27;80.77;99153.13;5054965;28;45259;-69
2022/11/18 03:14:42;;;;;;;;;0.75;0.75;;;;;9.26;80.83;99156.69;5054985;28;45236;-69
2022/11/18 03:17:07;;;;;;;;;1.00;1.00;;;;;9.27;80.98;99166.25;5055433;28;45287;-71
2022/11/18 03:19:57;;;;;;;;;0.50;0.50;;;;;9.25;80.61;99171.63;5054459;28;46216;-70
2022/11/18 03:22:22;;;;;;;;;1.00;1.00;;;;;9.25;80.44;99163.75;5054556;28;45389;-67
2022/11/18 03:25:10;;;;;;;;;1.00;1.00;;;;;9.22;80.77;99163.91;5054594;28;45394;-70
2022/11/18 03:27:45;;;;;;;;;2.00;2.00;;;;;9.13;80.54;99154.78;5053577;28;45393;-70
2022/11/18 03:30:17;;;;;;;;;0.00;0.00;;;;;9.13;80.36;99149.53;5054742;28;45459;-69
2022/11/18 03:33:06;;;;;;;;;0.50;0.50;;;;;9.22;80.85;99169.16;5054459;28;45224;-68
2022/11/18 03:35:36;;;;;;;;;1.00;1.00;;;;;9.21;81.02;99170.09;5063186;28;45300;-68
2022/11/18 03:38:10;;;;;;;;;1.25;1.25;;;;;9.17;80.54;99171.22;5052945;28;45592;-68
2022/11/18 03:40:40;;;;;;;;;1.00;1.00;;;;;9.17;81.17;99171.22;5053899;28;46493;-69
2022/11/18 03:43:11;;;;;;;;;0.00;0.00;;;;;9.18;81.15;99180.78;5054144;28;45449;-68
2022/11/18 03:45:43;;;;;;;;;0.50;0.50;;;;;9.15;81.15;99189.66;5054719;28;45524;-68
2022/11/18 03:48:14;;;;;;;;;0.75;0.75;;;;;9.14;81.47;99193.19;5054809;28;45543;-69
2022/11/18 03:50:46;;;;;;;;;1.00;1.00;;;;;9.13;81.61;99199.38;5086676;27;46542;-69
2022/11/18 03:53:14;;;;;;;;;0.00;0.00;;;;;9.14;81.92;99208.09;5054126;28;45441;-68
2022/11/18 03:55:43;;;;;;;;;1.00;1.00;;;;;9.08;81.60;99201.41;5053048;28;45405;-69
2022/11/18 03:58:14;;;;;;;;;1.75;1.75;;;;;9.09;81.72;99216.22;5054687;28;45278;-68
2022/11/18 04:00:44;;;;;;;;;1.75;1.75;;;;;9.04;81.61;99211.25;5054418;28;46491;-68
2022/11/18 04:03:10;;;;;;;;;0.75;0.75;;;;;9.05;81.78;99212.09;5054624;28;45236;-68
2022/11/18 04:05:39;;;;;;;;;1.00;1.00;;;;;9.08;81.82;99219.78;5054208;28;45334;-68
2022/11/18 04:08:12;;;;;;;;;1.00;1.00;;;;;9.10;82.12;99225.78;5052906;28;45610;-69
2022/11/18 04:11:00;;;;;;;;;1.25;1.25;;;;;9.09;82.00;99220.63;5053984;28;46654;-68
2022/11/18 04:13:31;;;;;;;;;0.00;0.00;;;;;9.03;82.10;99219.19;5054048;28;45513;-69
2022/11/18 04:15:56;;;;;;;;;1.00;1.00;;;;;9.10;82.14;99230.19;5052434;28;45411;-68
2022/11/18 04:18:21;;;;;;;;;1.00;1.00;;;;;9.07;81.69;99233.81;5054121;28;45468;-69
2022/11/18 04:20:47;;;;;;;;;1.00;1.00;;;;;9.09;82.04;99239.00;5054001;28;46496;-68
2022/11/18 04:23:12;;;;;;;;;0.75;0.75;;;;;9.08;82.00;99237.31;5054422;28;45297;-70
2022/11/18 04:25:38;;;;;;;;;2.00;2.00;;;;;9.09;81.95;99242.47;5069481;28;45456;-67
2022/11/18 04:28:03;;;;;;;;;0.00;0.00;;;;;9.11;81.96;99253.72;5054294;28;45293;-68
2022/11/18 04:30:29;;;;;;;;;1.00;1.00;;;;;9.08;81.95;99255.66;5052412;28;47890;-67
2022/11/18 04:32:54;;;;;;;;;0.75;0.75;;;;;9.07;81.85;99249.56;5053907;28;45674;-65
2022/11/18 04:35:20;;;;;;;;;1.00;1.00;;;;;9.06;82.03;99258.38;5053965;28;45436;-67
2022/11/18 04:37:45;;;;;;;;;1.00;1.00;;;;;9.08;81.88;99259.13;5054316;28;45453;-67
2022/11/18 04:40:11;;;;;;;;;1.00;1.00;;;;;9.03;82.05;99269.88;5053748;28;46210;-70
2022/11/18 04:42:36;;;;;;;;;0.00;0.00;;;;;9.07;82.05;99275.78;5053995;28;45259;-69
2022/11/18 04:45:02;;;;;;;;;1.00;1.00;;;;;9.09;82.20;99284.44;5053857;28;45365;-69
2022/11/18 04:47:28;;;;;;;;;1.00;1.00;;;;;9.06;81.60;99285.47;5054183;28;45476;-68
2022/11/18 04:49:53;;;;;;;;;0.75;0.75;;;;;9.04;82.16;99281.22;5053805;28;45524;-66
2022/11/18 04:52:18;;;;;;;;;2.00;2.00;;;;;9.02;82.24;99280.44;5052133;28;45678;-71
2022/11/18 04:54:45;;;;;;;;;0.75;0.75;;;;;9.05;82.24;99294.25;5093209;27;45473;-69
2022/11/18 04:57:10;;;;;;;;;2.00;2.00;;;;;9.03;81.97;99282.13;5060837;28;45609;-66
2022/11/18 04:59:36;;;;;;;;;2.00;2.00;;;;;9.01;82.10;99281.38;5053475;28;45485;-65
2022/11/18 05:02:01;;;;;;;;;1.50;1.50;;;;;8.98;82.25;99289.41;5070523;28;45244;-70
2022/11/18 05:04:30;;;;;;;;;1.00;1.00;;;;;8.97;81.97;99291.19;5074222;28;45339;-68
2022/11/18 05:06:56;;;;;;;;;1.75;1.75;;;;;8.96;82.25;99296.53;5077221;28;45338;-69
2022/11/18 05:09:21;;;;;;;;;0.00;0.00;;;;;8.97;82.21;99304.28;5072485;27;46119;-70
2022/11/18 05:14:30;;;;;;;;;1.25;1.25;;;;;8.97;82.42;99293.78;5056536;27;45321;-71
2022/11/18 05:16:59;;;;;;;;;2.00;2.00;;;;;8.97;82.26;99300.84;5064324;27;45542;-70
2022/11/18 05:19:25;;;;;;;;;1.00;1.00;;;;;8.88;82.54;99287.28;5076060;27;46148;-73
2022/11/18 05:21:51;;;;;;;;;1.00;1.00;;;;;8.94;82.94;99299.22;5056952;27;45454;-73
2022/11/18 05:24:17;;;;;;;;;2.00;2.00;;;;;8.94;83.49;99301.84;5056969;28;45299;-73
2022/11/18 05:26:42;;;;;;;;;1.00;1.00;;;;;8.97;82.81;99301.66;5055437;27;45621;-71
2022/11/18 05:29:08;;;;;;;;;2.00;2.00;;;;;8.97;82.65;99301.66;5071169;28;45565;-71
2022/11/18 05:31:33;;;;;;;;;2.00;2.00;;;;;8.95;82.56;99307.94;5073520;27;45468;-70
2022/11/18 05:33:59;;;;;;;;;2.75;2.00;;;;;8.92;82.54;99308.94;5055956;27;45418;-74
2022/11/18 05:36:24;;;;;;;;;1.00;1.00;;;;;8.90;82.28;99309.03;5057396;27;45405;-74
2022/11/18 05:38:49;;;;;;;;;1.00;1.00;;;;;8.89;81.86;99319.59;5055757;28;46563;-67
2022/11/18 05:43:59;;;;;;;;;3.00;3.00;;;;;8.85;82.21;99321.53;5057325;27;45383;-68
2022/11/18 05:46:25;;;;;;;;;1.25;1.25;;;;;8.83;82.10;99328.66;5054313;28;45621;-68
2022/11/18 05:48:50;;;;;;;;;2.00;2.00;;;;;8.81;82.27;99327.88;5055245;28;46599;-69
2022/11/18 05:51:16;;;;;;;;;2.25;2.25;;;;;8.80;82.13;99323.56;5056801;27;52977;-70
2022/11/18 05:53:41;;;;;;;;;2.75;2.50;;;;;8.78;82.06;99322.81;5055361;27;45529;-70
2022/11/18 05:56:16;;;;;;;;;5.50;4.25;;;;;8.76;82.05;99330.72;5056275;28;45379;-70
2022/11/18 05:58:42;;;;;;;;;2.75;2.50;;;;;8.73;82.00;99341.38;5055972;28;45480;-70
2022/11/18 06:01:09;;;;;;;;;2.00;2.00;;;;;8.73;82.40;99341.38;5053780;28;45561;-70
2022/11/18 06:03:39;;;;;;;;;2.00;2.00;;;;;8.65;82.16;99327.00;5055164;27;45441;-69
2022/11/18 06:06:06;;;;;;;;;2.00;2.00;;;;;8.71;82.24;99342.41;5055685;28;45367;-71
2022/11/18 06:08:38;;;;;;;;;2.00;2.00;;;;;8.69;82.12;99342.47;5055216;28;46034;-70
2022/11/18 06:11:05;;;;;;;;;3.50;2.50;;;;;8.71;82.21;99350.28;5056177;27;45555;-70
2022/11/18 06:13:39;;;;;;;;;3.00;3.00;;;;;8.68;82.08;99351.25;5060768;27;45532;-71
2022/11/18 06:16:05;;;;;;;;;2.75;2.75;;;;;8.68;82.30;99359.13;5064972;27;45525;-68
2022/11/18 06:18:31;;;;;;;;;3.75;3.75;;;;;8.68;82.36;99369.63;5055367;27;47259;-68
2022/11/18 06:21:02;;;;;;;;;4.50;4.00;;;;;8.66;82.09;99370.63;5079995;27;45432;-70
2022/11/18 06:23:30;;;;;;;;;4.00;4.00;;;;;8.65;82.21;99371.56;5067589;27;45377;-66
2022/11/18 06:25:55;;;;;;;;;2.25;2.25;;;;;8.60;82.41;99375.28;5082235;27;45284;-67
2022/11/18 06:28:22;;;;;;;;;2.00;2.00;;;;;8.62;82.17;99381.28;5095848;27;45512;-66
2022/11/18 06:30:47;;;;;;;;;2.00;2.00;;;;;8.63;82.62;99376.88;5096300;27;45313;-67
2022/11/18 06:33:12;;;;;;;;;3.00;3.00;;;;;8.65;82.28;99382.06;5096069;27;45259;-67
2022/11/18 06:35:38;;;;;;;;;4.00;4.00;;;;;8.64;82.49;99394.28;5093901;27;45361;-70
2022/11/18 06:38:03;;;;;;;;;4.75;4.75;;;;;8.61;82.03;99392.69;5071530;27;51165;-70
2022/11/18 06:40:29;;;;;;;;;2.00;2.00;;;;;8.61;82.40;99389.22;5062061;27;45566;-68
2022/11/18 06:45:38;;;;;;;;;3.50;3.50;;;;;8.59;82.46;99412.91;5090976;27;45470;-68
2022/11/18 06:48:03;;;;;;;;;2.00;2.00;;;;;8.61;82.35;99407.56;5074491;28;45383;-70
2022/11/18 06:50:29;;;;;;;;;2.25;2.25;;;;;8.61;82.26;99418.91;5088005;27;45408;-69
2022/11/18 06:52:55;;;;;;;;;4.00;4.00;;;;;8.61;82.39;99418.91;5111235;27;45309;-68
2022/11/18 06:55:20;;;;;;;;;3.00;3.00;;;;;8.55;82.54;99416.59;5082838;27;46022;-68
2022/11/18 06:57:45;;;;;;;;;3.00;3.00;;;;;8.60;82.25;99429.47;5088829;27;47415;-68
2022/11/18 07:00:11;;;;;;;;;2.75;2.75;;;;;8.57;82.20;99425.22;5093612;27;45169;-68
2022/11/18 07:02:37;;;;;;;;;3.50;3.50;;;;;8.58;82.00;99428.69;5073688;27;45253;-68
2022/11/18 07:05:04;;;;;;;;;3.75;3.75;;;;;8.54;82.01;99429.75;5075226;28;45230;-70
2022/11/18 07:07:29;;;;;;;;;3.00;3.00;;;;;8.52;82.00;99432.47;5079238;27;46372;-68
2022/11/18 07:09:55;;;;;;;;;4.00;4.00;;;;;8.51;82.54;99440.41;5094631;27;45508;-70
2022/11/18 07:12:20;;;;;;;;;5.25;5.00;;;;;8.50;82.72;99444.81;5076397;27;45401;-69
2022/11/18 07:14:46;;;;;;;;;5.00;5.00;;;;;8.49;82.47;99448.34;5061944;27;45380;-69
2022/11/18 07:17:11;;;;;;;;;4.00;4.00;;;;;8.46;82.16;99453.69;5054505;28;46537;-68
2022/11/18 07:19:38;;;;;;;;;5.00;5.00;;;;;8.50;82.04;99464.91;5054353;28;45506;-68
2022/11/18 07:22:03;;;;;;;;;8.50;7.25;;;;;8.46;82.47;99466.78;5087213;27;45444;-70
2022/11/18 07:24:29;;;;;;;;;6.00;6.00;;;;;8.39;82.29;99458.41;5054708;28;45236;-68
2022/11/18 07:26:54;;;;;;;;;4.00;4.00;;;;;8.44;82.11;99473.88;5065492;27;46296;-69
2022/11/18 07:29:20;;;;;;;;;18.50;17.00;;;;;8.42;82.49;99471.34;5066570;27;46640;-68
2022/11/18 07:31:45;;;;;;;;;4.00;4.00;;;;;8.44;82.22;99484.38;5068883;27;45240;-67
2022/11/18 07:34:11;;;;;;;;;4.00;4.00;;;;;8.44;82.34;99489.59;5055113;28;45518;-68
2022/11/18 07:36:37;;;;;;;;;4.00;4.00;;;;;8.45;82.25;99491.31;5070396;27;47363;-70
2022/11/18 07:39:05;;;;;;;;;7.00;7.00;;;;;8.49;82.43;99498.16;5054330;28;45276;-69
2022/11/18 07:41:30;;;;;;;;;4.25;4.25;;;;;8.52;82.17;99498.00;5061823;27;45426;-68
2022/11/18 07:43:57;;;;;;;;;5.00;5.00;;;;;8.50;81.97;99499.84;5073151;27;45706;-68
2022/11/18 07:46:28;;;;;;;;;4.00;4.00;;;;;8.54;81.81;99504.03;5072597;27;46594;-66
2022/11/18 07:48:56;;;;;;;;;4.75;4.75;;;;;8.61;81.89;99502.78;5060367;27;45873;-68
2022/11/18 07:51:24;;;;;;;;;5.00;5.00;;;;;8.65;82.03;99510.50;5054604;27;45376;-69
2022/11/18 07:53:49;;;;;;;;;5.50;5.50;;;;;8.68;81.85;99510.34;5071787;28;45313;-69
2022/11/18 07:56:16;;;;;;;;;8.00;8.00;;;;;8.73;82.05;99514.44;5074001;28;46257;-69
2022/11/18 07:58:42;;;;;;;;;8.00;8.00;;;;;8.73;81.77;99511.81;5074880;28;45390;-70
2022/11/18 08:01:12;;;;;;;;;5.00;5.00;;;;;8.84;81.61;99516.53;5074364;27;45247;-69
2022/11/18 08:03:38;;;;;;;;;5.00;5.00;;;;;8.85;81.48;99527.84;5072810;28;45368;-70
2022/11/18 08:06:06;;;;;;;;;6.75;6.75;;;;;8.85;81.33;99528.72;5089500;27;46523;-69
2022/11/18 08:08:31;;;;;;;;;6.50;6.50;;;;;8.87;80.73;99523.38;5074033;28;45215;-69
2022/11/18 08:10:58;;;;;;;;;5.00;5.00;;;;;8.91;81.10;99522.28;5089607;27;45290;-70
2022/11/18 08:13:25;;;;;;;;;5.00;5.00;;;;;8.90;81.07;99521.47;5074470;28;45594;-70
2022/11/18 08:15:51;;;;;;;;;6.00;6.00;;;;;8.89;80.76;99532.88;5073938;28;46307;-70
2022/11/18 08:18:17;;;;;;;;;5.00;5.00;;;;;8.92;80.91;99529.25;5074132;28;45245;-71
2022/11/18 08:20:44;;;;;;;;;5.25;5.25;;;;;8.99;80.49;99535.03;5074199;28;45256;-70
2022/11/18 08:23:10;;;;;;;;;4.00;4.00;;;;;9.01;80.92;99541.06;5074437;28;45402;-70
2022/11/18 08:25:35;;;;;;;;;4.00;4.00;;;;;9.06;80.15;99536.41;5090125;27;47070;-70
2022/11/18 08:28:00;;;;;;;;;5.00;4.00;;;;;9.11;80.61;99550.16;5074593;28;45211;-70
2022/11/18 08:30:25;;;;;;;;;4.00;4.00;;;;;9.09;80.47;99541.50;5074447;28;45333;-71
2022/11/18 08:32:51;;;;;;;;;4.00;4.00;;;;;9.13;80.20;99537.81;5072433;28;45664;-70
2022/11/18 08:35:16;;;;;;;;;4.00;4.00;;;;;9.20;80.12;99540.97;5073598;28;53131;-70
2022/11/18 08:37:41;;;;;;;;;2.00;2.00;;;;;9.28;80.02;99553.69;5073443;28;45521;-70
2022/11/18 08:40:07;;;;;;;;;6.00;6.00;;;;;9.31;80.02;99551.78;5076785;28;45432;-70
2022/11/18 08:42:33;;;;;;;;;3.00;3.00;;;;;9.34;79.65;99550.75;5077725;28;45336;-70
2022/11/18 08:44:59;;;;;;;;;4.25;4.25;;;;;9.36;79.66;99554.13;5077265;27;45580;-71
2022/11/18 08:47:24;;;;;;;;;3.00;3.00;;;;;9.37;79.68;99555.84;5077373;28;45407;-69
2022/11/18 08:49:49;;;;;;;;;11.25;11.25;;;;;9.39;79.29;99559.22;5077148;27;45251;-71
2022/11/18 08:52:15;;;;;;;;;11.00;11.00;;;;;9.40;79.40;99558.31;5077472;28;45700;-70
2022/11/18 08:54:40;;;;;;;;;5.75;5.75;;;;;9.42;79.16;99563.50;5076699;28;45461;-69
2022/11/18 08:57:05;;;;;;;;;5.00;5.00;;;;;9.42;79.11;99566.94;5076980;27;45328;-71
2022/11/18 08:59:31;;;;;;;;;3.75;3.75;;;;;9.46;79.41;99571.09;5076537;28;47868;-69
2022/11/18 09:01:56;;;;;;;;;10.75;10.75;;;;;9.49;79.49;99570.13;5077519;28;45386;-70
2022/11/18 09:04:22;;;;;;;;;3.50;3.50;;;;;9.52;79.47;99563.84;5076633;28;45548;-69
2022/11/18 09:06:47;;;;;;;;;4.00;4.00;;;;;9.57;79.46;99559.22;5075327;28;45483;-71
2022/11/18 09:09:12;;;;;;;;;5.00;5.00;;;;;9.60;78.88;99569.56;5075655;28;45347;-70
2022/11/18 09:11:39;;;;;;;;;6.00;6.00;;;;;9.60;79.34;99565.16;5077378;27;45651;-71
2022/11/18 09:14:04;;;;;;;;;3.25;3.00;;;;;9.60;78.94;99562.53;5077032;28;45375;-70
2022/11/18 09:16:32;;;;;;;;;4.50;4.00;;;;;9.65;78.90;99571.00;5076947;28;45303;-69
2022/11/18 09:18:58;;;;;;;;;3.50;3.50;;;;;9.69;78.79;99571.72;5077749;28;45333;-69
2022/11/18 09:21:24;;;;;;;;;4.00;4.00;;;;;9.72;79.26;99575.94;5077338;28;45442;-71
2022/11/18 09:23:50;;;;;;;;;7.50;7.00;;;;;9.73;79.14;99582.88;5076737;28;46490;-70
2022/11/18 09:26:19;;;;;;;;;5.00;5.00;;;;;9.75;78.67;99584.50;5076475;28;45309;-69
2022/11/18 09:28:45;;;;;;;;;7.00;7.00;;;;;9.81;78.45;99582.50;5076558;28;45399;-70
2022/11/18 09:31:13;;;;;;;;;8.00;6.25;;;;;9.74;78.57;99567.06;5074934;28;45278;-69
2022/11/18 09:33:39;;;;;;;;;4.00;4.00;;;;;9.97;78.16;99588.63;5076403;27;46406;-70
2022/11/18 09:36:11;;;;;;;;;3.00;3.00;;;;;10.05;78.17;99588.19;5092164;27;45483;-70
2022/11/18 09:38:37;;;;;;;;;3.00;2.00;;;;;10.13;78.23;99586.03;5074923;28;45270;-69
2022/11/18 09:41:08;;;;;;;;;6.00;6.00;;;;;10.21;78.21;99585.59;5076020;28;45266;-69
2022/11/18 09:44:10;;;;;;;;;6.25;6.25;;;;;10.33;77.61;99597.22;5076442;28;46565;-69
2022/11/18 09:46:36;;;;;;;;;5.00;5.00;;;;;10.39;77.50;99586.38;5076412;27;45302;-69
2022/11/18 09:49:12;;;;;;;;;4.50;4.50;;;;;10.46;77.55;99586.88;5076002;28;45325;-71
2022/11/18 09:51:41;;;;;;;;;5.00;5.00;;;;;10.52;77.34;99581.28;5076624;27;45465;-71
2022/11/18 09:54:11;;;;;;;;;4.00;4.00;;;;;10.60;76.79;99583.50;5075932;28;46603;-71
2022/11/18 09:56:38;;;;;;;;;5.00;5.00;;;;;10.70;76.22;99594.38;5075782;28;45295;-69
2022/11/18 09:59:03;;;;;;;;;7.00;7.00;;;;;10.71;76.24;99589.00;5075896;28;45365;-69
2022/11/18 10:01:29;;;;;;;;;11.25;11.25;;;;;10.76;75.75;99584.31;5076331;28;45572;-69
2022/11/18 10:03:54;;;;;;;;;4.00;4.00;;;;;10.87;75.95;99601.28;5075767;28;46185;-71
2022/11/18 10:06:25;;;;;;;;;3.00;3.00;;;;;11.00;75.64;99601.44;5076271;27;45255;-70
2022/11/18 10:09:28;;;;;;;;;8.00;8.00;;;;;11.09;75.44;99612.25;5076233;28;45345;-71
2022/11/18 10:12:13;;;;;;;;;2.00;2.00;;;;;11.16;75.02;99602.22;5068218;28;45476;-70
2022/11/18 10:14:41;;;;;;;;;4.00;3.00;;;;;11.20;74.69;99602.91;5075995;28;45666;-71
2022/11/18 10:17:44;;;;;;;;;4.00;4.00;;;;;11.29;74.32;99606.78;5091236;27;46154;-70
2022/11/18 10:20:21;;;;;;;;;4.50;4.50;;;;;11.37;74.30;99607.16;5075901;27;45374;-69
2022/11/18 10:22:58;;;;;;;;;3.25;3.25;;;;;11.43;73.83;99619.97;5074426;28;45459;-70
2022/11/18 10:25:24;;;;;;;;;3.00;3.00;;;;;11.42;73.41;99609.53;5072759;28;46424;-68
2022/11/18 10:27:50;;;;;;;;;3.25;3.25;;;;;11.48;73.49;99611.81;5072857;27;45437;-71
2022/11/18 10:30:19;;;;;;;;;5.00;4.75;;;;;11.51;73.54;99609.00;5089205;27;45426;-72
2022/11/18 10:33:02;;;;;;;;;5.00;5.00;;;;;11.52;72.77;99603.63;5073600;28;45440;-70
2022/11/18 10:35:32;;;;;;;;;4.75;4.75;;;;;11.60;72.83;99610.22;5073189;28;46486;-71
2022/11/18 10:38:12;;;;;;;;;2.50;2.50;;;;;11.61;72.96;99611.91;5073269;27;45472;-70
2022/11/18 10:40:44;;;;;;;;;3.75;3.75;;;;;11.64;72.93;99617.00;5075196;28;45175;-70
2022/11/18 10:43:10;;;;;;;;;5.25;5.25;;;;;11.61;72.40;99607.50;5075331;28;45372;-70
2022/11/18 10:45:35;;;;;;;;;3.50;3.50;;;;;11.67;72.41;99614.19;5073854;28;47888;-70
2022/11/18 10:48:17;;;;;;;;;4.00;4.00;;;;;11.67;71.99;99607.13;5075816;28;45168;-71
2022/11/18 10:50:45;;;;;;;;;5.50;5.50;;;;;11.71;72.07;99623.63;5074218;28;45318;-69
2022/11/18 10:53:30;;;;;;;;;2.25;2.25;;;;;11.72;72.24;99622.66;5073509;28;45515;-70
2022/11/18 10:56:02;;;;;;;;;4.00;4.00;;;;;11.76;72.02;99618.91;5073870;28;45968;-70
2022/11/18 10:58:31;;;;;;;;;4.00;4.00;;;;;11.76;71.70;99620.69;5074839;28;45388;-69
2022/11/18 11:01:26;;;;;;;;;6.00;6.00;;;;;11.85;71.83;99625.38;5074555;27;45284;-71
2022/11/18 11:03:59;;;;;;;;;4.00;4.00;;;;;11.89;71.82;99611.09;5071486;27;45236;-71
2022/11/18 11:06:37;;;;;;;;;5.25;5.25;;;;;11.96;71.46;99616.84;5075065;27;45469;-70
2022/11/18 11:09:08;;;;;;;;;5.75;4.50;;;;;12.03;71.33;99612.91;5075114;28;45403;-71
2022/11/18 11:11:59;;;;;;;;;3.50;3.50;;;;;12.10;70.65;99616.00;5075136;28;45298;-69
2022/11/18 11:14:34;;;;;;;;;4.00;4.00;;;;;12.11;70.40;99621.19;5074841;28;45423;-71
2022/11/18 11:17:14;;;;;;;;;3.00;3.00;;;;;12.19;70.27;99628.59;5074873;27;46135;-71
2022/11/18 11:19:48;;;;;;;;;3.25;3.25;;;;;12.20;70.17;99609.25;5074738;27;45327;-70
2022/11/18 11:22:15;;;;;;;;;7.75;6.75;;;;;12.24;70.08;99610.75;5074795;27;45408;-70
2022/11/18 11:24:40;;;;;;;;;5.00;4.75;;;;;12.39;69.92;99629.19;5074748;27;45264;-72
2022/11/18 11:28:01;;;;;;;;;5.00;5.00;;;;;12.46;69.51;99634.91;5074801;28;46174;-71
2022/11/18 11:30:26;;;;;;;;;4.50;4.50;;;;;12.50;69.13;99625.84;5031867;28;45536;-70
2022/11/18 11:33:45;;;;;;;;;3.75;3.75;;;;;12.54;69.11;99622.06;5065033;28;45446;-70
2022/11/18 11:36:31;;;;;;;;;5.00;5.00;;;;;12.60;69.11;99626.13;5015276;28;45374;-70
2022/11/18 11:39:07;;;;;;;;;4.50;4.50;;;;;12.64;68.59;99625.81;5030920;28;46321;-70
2022/11/18 11:41:50;;;;;;;;;4.00;4.00;;;;;12.64;68.21;99617.88;5059716;28;45270;-70
2022/11/18 11:44:21;;;;;;;;;1.00;1.00;;;;;12.62;67.67;99613.66;5073783;28;45224;-70
2022/11/18 11:47:45;;;;;;;;;4.50;4.50;;;;;12.57;68.28;99619.22;5074275;28;45590;-70
2022/11/18 11:50:01;;;;;;;;;3.25;3.25;;;;;12.52;68.12;99603.72;5074072;27;45501;-69
2022/11/18 11:52:26;;;;;;;;;4.75;4.75;;;;;12.57;68.19;99619.22;5072377;28;45346;-71
2022/11/18 11:55:17;;;;;;;;;4.25;4.25;;;;;12.67;67.81;99615.06;5074313;28;45495;-70
2022/11/18 11:58:03;;;;;;;;;7.00;7.00;;;;;12.76;67.67;99618.91;5074853;27;45447;-70
2022/11/18 12:00:34;;;;;;;;;3.25;3.25;;;;;12.86;67.69;99616.53;5089549;27;47080;-70
2022/11/18 12:03:11;;;;;;;;;7.00;6.00;;;;;12.89;66.97;99611.03;5073791;28;45227;-70
2022/11/18 12:05:39;;;;;;;;;5.25;5.25;;;;;12.91;66.77;99616.22;5074132;28;45389;-70
2022/11/18 12:08:16;;;;;;;;;4.00;4.00;;;;;12.88;66.89;99611.13;5074421;28;45634;-71